METAR AND TAF INFORMATION
METAR FOR UATG
ADDS - METARS form results

(0109 UTC 18 November 2019)
Data provider http://aviationweather.gov/metar/data/
 
METAR text: UATG 180100Z 04003MPS 5000 BR NSC M09/M11 Q1034 R32/CLRD70 NOSIG RMK QFE778/1037
Conditions at: UATG (ATYRAU , KZ) observed 0100 UTC 18 November 2019
Temperature: -9.0°C (16°F)
Dewpoint: -11.0°C (12°F) [RH = 85%]
Pressure (altimeter): 30.53 inches Hg (1034.0 mb)
Winds: from the NE (40 degrees) at 7 MPH (6 knots; 3.1 m/s)
Visibility: 3 miles ( 5 km)
Ceiling: at least 12,000 feet AGL
Clouds: sky clear below 12,000 feet AGL
Weather: BR  (mist)

METAR text: UATG 180030Z 04003MPS 5000 BR NSC M09/M11 Q1034 R32/CLRD70 NOSIG RMK QFE778/1037
Conditions at: UATG (ATYRAU , KZ) observed 0030 UTC 18 November 2019
Temperature: -9.0°C (16°F)
Dewpoint: -11.0°C (12°F) [RH = 85%]
Pressure (altimeter): 30.53 inches Hg (1034.0 mb)
Winds: from the NE (40 degrees) at 7 MPH (6 knots; 3.1 m/s)
Visibility: 3 miles ( 5 km)
Ceiling: at least 12,000 feet AGL
Clouds: sky clear below 12,000 feet AGL
Weather: BR  (mist)

Forecast for: UATG (ATYRAU , KZ)
Text: TAF UATG 172302Z 1800/1824 VRB03MPS 3100 BR BKN011 TX05/1810Z TNM09/1803Z
Forecast period: 0000 to 0800 UTC 18 November 2019
Forecast type: FROM: standard forecast or significant change
Winds: variable direction winds at 7 MPH (6 knots; 3.1 m/s)
Visibility: 1.93 miles (3.11 km)
Ceiling: 1100 feet AGL
Clouds: broken clouds at 1100 feet AGL
Weather: BR  (mist)
Text: TEMPO 1800/1806 0300 FZFG VV001
Forecast period: 0000 to 0600 UTC 18 November 2019
Forecast type: TEMPORARY: The following changes expected for less than half the time period
Visibility: 0.19 miles (0.31 km)
Ceiling: indefinite ceiling with vertical visibility of 100 feet AGL
Clouds: obscured sky
Weather: FZFG  (freezing fog)
Text: BECMG 1808/1810 9999 NSW SCT020
Forecast period: 0800 to 1400 UTC 18 November 2019
Forecast type: BECOMING: Conditions expected to become as follows by 1000 UTC 18 November 2019
Winds: variable direction winds at 7 MPH (6 knots; 3.1 m/s)
Visibility: 6 or more miles 10+ km)
Ceiling: at least 12,000 feet AGL
Clouds: scattered clouds at 2000 feet AGL
Weather: NSW  (no significant weather)
Text: BECMG 1814/1816 3100 BR BKN011
Forecast period: 1400 UTC 18 November 2019 to 0000 UTC 19 November 2019
Forecast type: BECOMING: Conditions expected to become as follows by 1600 UTC 18 November 2019
Winds: variable direction winds at 7 MPH (6 knots; 3.1 m/s)
Visibility: 1.93 miles (3.11 km)
Ceiling: 1100 feet AGL
Clouds: broken clouds at 1100 feet AGL
Weather: BR  (mist)

 AIRPORT MAP

 RUNWAY INFORMATION

 AIRPORT FREQUENCIES
Type APP Name APP Frequency 123.7 MHZ
Type TWR Name TWR Frequency 118.1 MHZ

 AIRPORT NEAR NAVIGATION AIDS
Type VOR-DME Name Atyrau Frequency 112300 KHZ
Type NDB Name Atyrau Frequency 315 KHZ
Type NDB Name Atyrau Frequency 315 KHZ



2018 Air Astana Virtual Airline